sensor_id;sensor_type;location;lat;lon;timestamp;temperature;humidity
23237;DHT22;11787;52.018;8.570;2022-12-05T00:00:25;2.60;99.90
23237;DHT22;11787;52.018;8.570;2022-12-05T00:06:13;2.70;99.90
23237;DHT22;11787;52.018;8.570;2022-12-05T00:08:39;2.70;99.90
23237;DHT22;11787;52.018;8.570;2022-12-05T00:11:13;2.70;99.90
23237;DHT22;11787;52.018;8.570;2022-12-05T00:13:40;2.70;99.90
23237;DHT22;11787;52.018;8.570;2022-12-05T00:16:08;2.70;99.90
23237;DHT22;11787;52.018;8.570;2022-12-05T00:18:34;2.70;99.90
23237;DHT22;11787;52.018;8.570;2022-12-05T00:20:59;2.60;99.90
23237;DHT22;11787;52.018;8.570;2022-12-05T00:23:25;2.60;99.90
23237;DHT22;11787;52.018;8.570;2022-12-05T00:25:50;2.70;99.90
23237;DHT22;11787;52.018;8.570;2022-12-05T00:28:16;2.70;99.90
23237;DHT22;11787;52.018;8.570;2022-12-05T00:30:41;2.70;99.90
23237;DHT22;11787;52.018;8.570;2022-12-05T00:36:31;2.60;99.90
23237;DHT22;11787;52.018;8.570;2022-12-05T00:39:03;2.60;99.90
23237;DHT22;11787;52.018;8.570;2022-12-05T00:41:30;2.70;99.90
23237;DHT22;11787;52.018;8.570;2022-12-05T00:43:58;2.70;99.90
23237;DHT22;11787;52.018;8.570;2022-12-05T00:46:26;2.70;99.90
23237;DHT22;11787;52.018;8.570;2022-12-05T00:48:53;2.70;99.90
23237;DHT22;11787;52.018;8.570;2022-12-05T00:51:22;2.70;99.90
23237;DHT22;11787;52.018;8.570;2022-12-05T00:53:48;2.70;99.90
23237;DHT22;11787;52.018;8.570;2022-12-05T00:56:17;2.70;99.90
23237;DHT22;11787;52.018;8.570;2022-12-05T00:58:43;2.70;99.90
23237;DHT22;11787;52.018;8.570;2022-12-05T01:01:15;2.80;99.90
23237;DHT22;11787;52.018;8.570;2022-12-05T01:03:41;2.70;99.90
23237;DHT22;11787;52.018;8.570;2022-12-05T01:09:29;2.80;99.90
23237;DHT22;11787;52.018;8.570;2022-12-05T01:11:55;2.70;99.90
23237;DHT22;11787;52.018;8.570;2022-12-05T01:14:22;2.80;99.90
23237;DHT22;11787;52.018;8.570;2022-12-05T01:16:50;2.70;99.90
23237;DHT22;11787;52.018;8.570;2022-12-05T01:19:19;2.70;99.90
23237;DHT22;11787;52.018;8.570;2022-12-05T01:21:46;2.80;99.90
23237;DHT22;11787;52.018;8.570;2022-12-05T01:24:13;2.80;99.90
23237;DHT22;11787;52.018;8.570;2022-12-05T01:26:40;2.80;99.90
23237;DHT22;11787;52.018;8.570;2022-12-05T01:29:06;2.80;99.90
23237;DHT22;11787;52.018;8.570;2022-12-05T01:31:34;2.70;99.90
23237;DHT22;11787;52.018;8.570;2022-12-05T01:34:03;2.70;99.90
23237;DHT22;11787;52.018;8.570;2022-12-05T01:36:30;2.80;99.90
23237;DHT22;11787;52.018;8.570;2022-12-05T01:38:56;2.80;99.90
23237;DHT22;11787;52.018;8.570;2022-12-05T01:41:31;2.80;99.90
23237;DHT22;11787;52.018;8.570;2022-12-05T01:46:32;2.70;99.90
23237;DHT22;11787;52.018;8.570;2022-12-05T01:49:11;2.80;99.90
23237;DHT22;11787;52.018;8.570;2022-12-05T01:51:42;2.80;99.90
23237;DHT22;11787;52.018;8.570;2022-12-05T01:54:10;2.80;99.90
23237;DHT22;11787;52.018;8.570;2022-12-05T01:56:36;2.70;99.90
23237;DHT22;11787;52.018;8.570;2022-12-05T01:59:04;2.80;99.90
23237;DHT22;11787;52.018;8.570;2022-12-05T02:01:31;2.70;99.90
23237;DHT22;11787;52.018;8.570;2022-12-05T02:03:57;2.80;99.90
23237;DHT22;11787;52.018;8.570;2022-12-05T02:06:24;2.80;99.90
23237;DHT22;11787;52.018;8.570;2022-12-05T02:08:52;2.70;99.90
23237;DHT22;11787;52.018;8.570;2022-12-05T02:11:18;2.70;99.90
23237;DHT22;11787;52.018;8.570;2022-12-05T02:16:57;2.80;99.90
23237;DHT22;11787;52.018;8.570;2022-12-05T02:31:48;2.80;99.90
23237;DHT22;11787;52.018;8.570;2022-12-05T02:40:34;2.70;99.90
23237;DHT22;11787;52.018;8.570;2022-12-05T02:43:09;2.70;99.90
23237;DHT22;11787;52.018;8.570;2022-12-05T02:45:37;2.70;99.90
23237;DHT22;11787;52.018;8.570;2022-12-05T02:48:05;2.70;99.90
23237;DHT22;11787;52.018;8.570;2022-12-05T02:50:34;2.70;99.90
23237;DHT22;11787;52.018;8.570;2022-12-05T02:53:07;2.70;99.90
23237;DHT22;11787;52.018;8.570;2022-12-05T02:55:34;2.70;99.90
23237;DHT22;11787;52.018;8.570;2022-12-05T02:58:04;2.70;99.90
23237;DHT22;11787;52.018;8.570;2022-12-05T03:00:30;2.70;99.90
23237;DHT22;11787;52.018;8.570;2022-12-05T03:02:57;2.70;99.90
23237;DHT22;11787;52.018;8.570;2022-12-05T03:08:00;2.70;99.90
23237;DHT22;11787;52.018;8.570;2022-12-05T03:10:29;2.70;99.90
23237;DHT22;11787;52.018;8.570;2022-12-05T03:13:01;2.70;99.90
23237;DHT22;11787;52.018;8.570;2022-12-05T03:15:31;2.70;99.90
23237;DHT22;11787;52.018;8.570;2022-12-05T03:18:05;2.80;99.90
23237;DHT22;11787;52.018;8.570;2022-12-05T03:20:36;2.70;99.90
23237;DHT22;11787;52.018;8.570;2022-12-05T03:23:10;2.80;99.90
23237;DHT22;11787;52.018;8.570;2022-12-05T03:25:52;2.70;99.90
23237;DHT22;11787;52.018;8.570;2022-12-05T03:28:28;2.70;99.90
23237;DHT22;11787;52.018;8.570;2022-12-05T03:31:00;2.70;99.90
23237;DHT22;11787;52.018;8.570;2022-12-05T03:33:29;2.70;99.90
23237;DHT22;11787;52.018;8.570;2022-12-05T03:36:04;2.70;99.90
23237;DHT22;11787;52.018;8.570;2022-12-05T03:38:39;2.70;99.90
23237;DHT22;11787;52.018;8.570;2022-12-05T03:43:57;2.70;99.90
23237;DHT22;11787;52.018;8.570;2022-12-05T03:51:30;2.70;99.90
23237;DHT22;11787;52.018;8.570;2022-12-05T03:54:03;2.70;99.90
23237;DHT22;11787;52.018;8.570;2022-12-05T03:56:41;2.70;99.90
23237;DHT22;11787;52.018;8.570;2022-12-05T04:01:53;2.70;99.90
23237;DHT22;11787;52.018;8.570;2022-12-05T04:04:37;2.70;99.90
23237;DHT22;11787;52.018;8.570;2022-12-05T04:07:06;2.70;99.90
23237;DHT22;11787;52.018;8.570;2022-12-05T04:09:39;2.70;99.90
23237;DHT22;11787;52.018;8.570;2022-12-05T04:12:13;2.70;99.90
23237;DHT22;11787;52.018;8.570;2022-12-05T04:14:44;2.70;99.90
23237;DHT22;11787;52.018;8.570;2022-12-05T04:17:21;2.70;99.90
23237;DHT22;11787;52.018;8.570;2022-12-05T04:20:04;2.70;99.90
23237;DHT22;11787;52.018;8.570;2022-12-05T04:22:49;2.80;99.90
23237;DHT22;11787;52.018;8.570;2022-12-05T04:25:16;2.80;99.90
23237;DHT22;11787;52.018;8.570;2022-12-05T04:36:03;2.80;99.90
23237;DHT22;11787;52.018;8.570;2022-12-05T04:41:04;2.80;99.90
23237;DHT22;11787;52.018;8.570;2022-12-05T04:43:34;2.70;99.90
23237;DHT22;11787;52.018;8.570;2022-12-05T04:46:04;2.80;99.90
23237;DHT22;11787;52.018;8.570;2022-12-05T04:48:34;2.80;99.90
23237;DHT22;11787;52.018;8.570;2022-12-05T04:51:02;2.80;99.90
23237;DHT22;11787;52.018;8.570;2022-12-05T04:53:29;2.70;99.90
23237;DHT22;11787;52.018;8.570;2022-12-05T04:55:58;2.70;99.90
23237;DHT22;11787;52.018;8.570;2022-12-05T04:58:25;2.80;99.90
23237;DHT22;11787;52.018;8.570;2022-12-05T05:03:46;2.80;99.90
23237;DHT22;11787;52.018;8.570;2022-12-05T05:06:13;2.80;99.90
23237;DHT22;11787;52.018;8.570;2022-12-05T05:08:50;2.80;99.90
23237;DHT22;11787;52.018;8.570;2022-12-05T05:11:20;2.80;99.90
23237;DHT22;11787;52.018;8.570;2022-12-05T05:13:46;2.80;99.90
23237;DHT22;11787;52.018;8.570;2022-12-05T05:16:18;2.90;99.90
23237;DHT22;11787;52.018;8.570;2022-12-05T05:18:45;2.80;99.90
23237;DHT22;11787;52.018;8.570;2022-12-05T05:21:35;2.90;99.90
23237;DHT22;11787;52.018;8.570;2022-12-05T05:24:02;2.80;99.90
23237;DHT22;11787;52.018;8.570;2022-12-05T05:26:29;2.80;99.90
23237;DHT22;11787;52.018;8.570;2022-12-05T05:28:56;2.80;99.90
23237;DHT22;11787;52.018;8.570;2022-12-05T05:31:22;2.80;99.90
23237;DHT22;11787;52.018;8.570;2022-12-05T05:37:10;2.80;99.90
23237;DHT22;11787;52.018;8.570;2022-12-05T05:39:35;2.80;99.90
23237;DHT22;11787;52.018;8.570;2022-12-05T05:42:01;2.80;99.90
23237;DHT22;11787;52.018;8.570;2022-12-05T05:44:27;2.80;99.90
23237;DHT22;11787;52.018;8.570;2022-12-05T05:46:52;2.80;99.90
23237;DHT22;11787;52.018;8.570;2022-12-05T05:49:18;2.80;99.90
23237;DHT22;11787;52.018;8.570;2022-12-05T05:51:44;2.80;99.90
23237;DHT22;11787;52.018;8.570;2022-12-05T05:54:09;2.80;99.90
23237;DHT22;11787;52.018;8.570;2022-12-05T05:56:35;2.80;99.90
23237;DHT22;11787;52.018;8.570;2022-12-05T05:59:02;2.90;99.90
23237;DHT22;11787;52.018;8.570;2022-12-05T06:01:28;2.80;99.90
23237;DHT22;11787;52.018;8.570;2022-12-05T06:03:54;2.90;99.90
23237;DHT22;11787;52.018;8.570;2022-12-05T06:06:20;2.90;99.90
23237;DHT22;11787;52.018;8.570;2022-12-05T06:08:47;2.90;99.90
23237;DHT22;11787;52.018;8.570;2022-12-05T06:11:21;2.90;99.90
23237;DHT22;11787;52.018;8.570;2022-12-05T06:13:46;2.90;99.90
23237;DHT22;11787;52.018;8.570;2022-12-05T06:16:14;3.00;99.90
23237;DHT22;11787;52.018;8.570;2022-12-05T06:18:40;2.90;99.90
23237;DHT22;11787;52.018;8.570;2022-12-05T06:21:06;3.00;99.90
23237;DHT22;11787;52.018;8.570;2022-12-05T06:23:36;3.00;99.90
23237;DHT22;11787;52.018;8.570;2022-12-05T06:26:03;3.00;99.90
23237;DHT22;11787;52.018;8.570;2022-12-05T06:28:29;3.00;99.90
23237;DHT22;11787;52.018;8.570;2022-12-05T06:30:55;3.10;99.90
23237;DHT22;11787;52.018;8.570;2022-12-05T06:33:20;3.10;99.90
23237;DHT22;11787;52.018;8.570;2022-12-05T06:35:46;3.10;99.90
23237;DHT22;11787;52.018;8.570;2022-12-05T06:38:12;3.10;99.90
23237;DHT22;11787;52.018;8.570;2022-12-05T06:40:42;3.20;99.90
23237;DHT22;11787;52.018;8.570;2022-12-05T06:43:08;3.20;99.90
23237;DHT22;11787;52.018;8.570;2022-12-05T06:45:33;3.20;99.90
23237;DHT22;11787;52.018;8.570;2022-12-05T06:47:59;3.20;99.90
23237;DHT22;11787;52.018;8.570;2022-12-05T06:50:24;3.10;99.90
23237;DHT22;11787;52.018;8.570;2022-12-05T06:52:50;3.20;99.90
23237;DHT22;11787;52.018;8.570;2022-12-05T06:55:16;3.20;99.90
23237;DHT22;11787;52.018;8.570;2022-12-05T06:57:42;3.10;99.90
23237;DHT22;11787;52.018;8.570;2022-12-05T07:00:08;3.10;99.90
23237;DHT22;11787;52.018;8.570;2022-12-05T07:02:52;3.10;99.90
23237;DHT22;11787;52.018;8.570;2022-12-05T07:05:18;3.10;99.90
23237;DHT22;11787;52.018;8.570;2022-12-05T07:07:44;3.10;99.90
23237;DHT22;11787;52.018;8.570;2022-12-05T07:10:10;3.00;99.90
23237;DHT22;11787;52.018;8.570;2022-12-05T07:12:36;3.00;99.90
23237;DHT22;11787;52.018;8.570;2022-12-05T07:15:02;3.00;99.90
23237;DHT22;11787;52.018;8.570;2022-12-05T07:17:28;3.00;99.90
23237;DHT22;11787;52.018;8.570;2022-12-05T07:19:53;3.00;99.90
23237;DHT22;11787;52.018;8.570;2022-12-05T07:22:21;3.10;99.90
23237;DHT22;11787;52.018;8.570;2022-12-05T07:24:47;3.10;99.90
23237;DHT22;11787;52.018;8.570;2022-12-05T07:27:14;3.00;99.90
23237;DHT22;11787;52.018;8.570;2022-12-05T07:29:40;3.00;99.90
23237;DHT22;11787;52.018;8.570;2022-12-05T07:32:07;3.00;99.90
23237;DHT22;11787;52.018;8.570;2022-12-05T07:34:32;3.00;99.90
23237;DHT22;11787;52.018;8.570;2022-12-05T07:36:59;3.00;99.90
23237;DHT22;11787;52.018;8.570;2022-12-05T07:39:25;3.00;99.90
23237;DHT22;11787;52.018;8.570;2022-12-05T07:41:50;2.90;99.90
23237;DHT22;11787;52.018;8.570;2022-12-05T07:44:16;2.90;99.90
23237;DHT22;11787;52.018;8.570;2022-12-05T07:46:41;2.90;99.90
23237;DHT22;11787;52.018;8.570;2022-12-05T07:49:07;2.80;99.90
23237;DHT22;11787;52.018;8.570;2022-12-05T07:51:33;2.80;99.90
23237;DHT22;11787;52.018;8.570;2022-12-05T07:54:00;2.70;99.90
23237;DHT22;11787;52.018;8.570;2022-12-05T07:56:26;2.70;99.90
23237;DHT22;11787;52.018;8.570;2022-12-05T07:58:52;2.70;99.90
23237;DHT22;11787;52.018;8.570;2022-12-05T08:04:40;2.60;99.90
23237;DHT22;11787;52.018;8.570;2022-12-05T08:10:28;2.60;99.90
23237;DHT22;11787;52.018;8.570;2022-12-05T08:12:53;2.50;99.90
23237;DHT22;11787;52.018;8.570;2022-12-05T08:15:19;2.60;99.90
23237;DHT22;11787;52.018;8.570;2022-12-05T08:17:44;2.50;99.90
23237;DHT22;11787;52.018;8.570;2022-12-05T08:20:10;2.60;99.90
23237;DHT22;11787;52.018;8.570;2022-12-05T08:22:36;2.50;99.90
23237;DHT22;11787;52.018;8.570;2022-12-05T08:25:01;2.50;99.90
23237;DHT22;11787;52.018;8.570;2022-12-05T08:27:27;2.60;99.90
23237;DHT22;11787;52.018;8.570;2022-12-05T08:29:53;2.60;99.90
23237;DHT22;11787;52.018;8.570;2022-12-05T08:35:40;2.60;99.90
23237;DHT22;11787;52.018;8.570;2022-12-05T08:38:06;2.60;99.90
23237;DHT22;11787;52.018;8.570;2022-12-05T08:40:31;2.50;99.90
23237;DHT22;11787;52.018;8.570;2022-12-05T08:42:57;2.50;99.90
23237;DHT22;11787;52.018;8.570;2022-12-05T08:45:23;2.50;99.90
23237;DHT22;11787;52.018;8.570;2022-12-05T08:47:48;2.60;99.90
23237;DHT22;11787;52.018;8.570;2022-12-05T08:50:14;2.50;99.90
23237;DHT22;11787;52.018;8.570;2022-12-05T08:52:39;2.40;99.90
23237;DHT22;11787;52.018;8.570;2022-12-05T08:55:05;2.40;99.90
23237;DHT22;11787;52.018;8.570;2022-12-05T08:57:31;2.50;99.90
23237;DHT22;11787;52.018;8.570;2022-12-05T08:59:56;2.50;99.90
23237;DHT22;11787;52.018;8.570;2022-12-05T09:02:22;2.40;99.90
23237;DHT22;11787;52.018;8.570;2022-12-05T09:04:51;2.50;99.90
23237;DHT22;11787;52.018;8.570;2022-12-05T09:07:17;2.50;99.90
23237;DHT22;11787;52.018;8.570;2022-12-05T09:09:42;2.50;99.90
23237;DHT22;11787;52.018;8.570;2022-12-05T09:12:08;2.50;99.90
23237;DHT22;11787;52.018;8.570;2022-12-05T09:14:34;2.40;99.90
23237;DHT22;11787;52.018;8.570;2022-12-05T09:16:59;2.40;99.90
23237;DHT22;11787;52.018;8.570;2022-12-05T09:22:47;2.50;99.90
23237;DHT22;11787;52.018;8.570;2022-12-05T09:28:34;2.40;99.90
23237;DHT22;11787;52.018;8.570;2022-12-05T09:31:02;2.40;99.90
23237;DHT22;11787;52.018;8.570;2022-12-05T09:33:30;2.30;99.90
23237;DHT22;11787;52.018;8.570;2022-12-05T09:35:56;2.30;99.90
23237;DHT22;11787;52.018;8.570;2022-12-05T09:38:22;2.20;99.90
23237;DHT22;11787;52.018;8.570;2022-12-05T09:41:03;2.30;99.90
23237;DHT22;11787;52.018;8.570;2022-12-05T09:46:23;2.20;99.90
23237;DHT22;11787;52.018;8.570;2022-12-05T09:52:30;2.20;99.90
23237;DHT22;11787;52.018;8.570;2022-12-05T09:55:20;2.20;99.90
23237;DHT22;11787;52.018;8.570;2022-12-05T09:57:56;2.20;99.90
23237;DHT22;11787;52.018;8.570;2022-12-05T10:00:23;2.20;99.90
23237;DHT22;11787;52.018;8.570;2022-12-05T10:12:03;2.10;99.90
23237;DHT22;11787;52.018;8.570;2022-12-05T10:14:55;2.10;99.90
23237;DHT22;11787;52.018;8.570;2022-12-05T10:17:37;2.20;99.90
23237;DHT22;11787;52.018;8.570;2022-12-05T10:20:12;2.10;99.90
23237;DHT22;11787;52.018;8.570;2022-12-05T10:26:04;2.10;99.90
23237;DHT22;11787;52.018;8.570;2022-12-05T10:28:50;2.10;99.90
23237;DHT22;11787;52.018;8.570;2022-12-05T10:31:21;2.00;99.90
23237;DHT22;11787;52.018;8.570;2022-12-05T10:33:55;2.10;99.90
23237;DHT22;11787;52.018;8.570;2022-12-05T10:36:23;2.00;99.90
23237;DHT22;11787;52.018;8.570;2022-12-05T10:38:49;2.00;99.90
23237;DHT22;11787;52.018;8.570;2022-12-05T10:41:15;2.00;99.90
23237;DHT22;11787;52.018;8.570;2022-12-05T10:43:43;2.00;99.90
23237;DHT22;11787;52.018;8.570;2022-12-05T10:46:11;2.00;99.90
23237;DHT22;11787;52.018;8.570;2022-12-05T10:48:39;2.10;99.90
23237;DHT22;11787;52.018;8.570;2022-12-05T10:51:08;2.00;99.90
23237;DHT22;11787;52.018;8.570;2022-12-05T10:53:41;2.10;99.90
23237;DHT22;11787;52.018;8.570;2022-12-05T10:59:45;2.20;99.90
23237;DHT22;11787;52.018;8.570;2022-12-05T11:02:26;2.10;99.90
23237;DHT22;11787;52.018;8.570;2022-12-05T11:04:53;2.20;99.90
23237;DHT22;11787;52.018;8.570;2022-12-05T11:29:34;1.90;99.90
23237;DHT22;11787;52.018;8.570;2022-12-05T11:35:26;1.80;99.90
23237;DHT22;11787;52.018;8.570;2022-12-05T11:40:25;1.90;99.90
23237;DHT22;11787;52.018;8.570;2022-12-05T11:48:48;2.10;99.90
23237;DHT22;11787;52.018;8.570;2022-12-05T11:55:01;2.10;99.90
23237;DHT22;11787;52.018;8.570;2022-12-05T12:05:54;2.20;99.90
23237;DHT22;11787;52.018;8.570;2022-12-05T12:08:26;2.20;99.90
23237;DHT22;11787;52.018;8.570;2022-12-05T12:14:13;2.20;99.90
23237;DHT22;11787;52.018;8.570;2022-12-05T12:16:15;2.20;99.90
23237;DHT22;11787;52.018;8.570;2022-12-05T12:22:25;2.20;99.90
23237;DHT22;11787;52.018;8.570;2022-12-05T12:28:20;2.20;99.90
23237;DHT22;11787;52.018;8.570;2022-12-05T12:31:24;2.30;99.90
23237;DHT22;11787;52.018;8.570;2022-12-05T12:34:19;2.30;99.90
23237;DHT22;11787;52.018;8.570;2022-12-05T12:36:54;2.30;99.90
23237;DHT22;11787;52.018;8.570;2022-12-05T12:42:20;2.30;99.90
23237;DHT22;11787;52.018;8.570;2022-12-05T12:48:19;2.40;99.90
23237;DHT22;11787;52.018;8.570;2022-12-05T12:50:51;2.40;99.90
23237;DHT22;11787;52.018;8.570;2022-12-05T13:02:17;2.40;99.90
23237;DHT22;11787;52.018;8.570;2022-12-05T13:04:56;2.40;99.90
23237;DHT22;11787;52.018;8.570;2022-12-05T13:10:27;2.40;99.90
23237;DHT22;11787;52.018;8.570;2022-12-05T13:12:57;2.40;99.90
23237;DHT22;11787;52.018;8.570;2022-12-05T13:21:18;2.40;99.90
23237;DHT22;11787;52.018;8.570;2022-12-05T13:23:52;2.30;99.90
23237;DHT22;11787;52.018;8.570;2022-12-05T13:26:20;2.40;99.90
23237;DHT22;11787;52.018;8.570;2022-12-05T13:28:58;2.40;99.90
23237;DHT22;11787;52.018;8.570;2022-12-05T13:31:41;2.40;99.90
23237;DHT22;11787;52.018;8.570;2022-12-05T13:37:22;2.40;99.90
23237;DHT22;11787;52.018;8.570;2022-12-05T13:40:31;2.40;99.90
23237;DHT22;11787;52.018;8.570;2022-12-05T13:43:18;2.40;99.90
23237;DHT22;11787;52.018;8.570;2022-12-05T13:46:04;2.40;99.90
23237;DHT22;11787;52.018;8.570;2022-12-05T13:48:33;2.40;99.90
23237;DHT22;11787;52.018;8.570;2022-12-05T13:51:07;2.40;99.90
23237;DHT22;11787;52.018;8.570;2022-12-05T13:53:41;2.40;99.90
23237;DHT22;11787;52.018;8.570;2022-12-05T14:11:29;2.30;99.90
23237;DHT22;11787;52.018;8.570;2022-12-05T14:13:55;2.40;99.90
23237;DHT22;11787;52.018;8.570;2022-12-05T14:19:00;2.30;99.90
23237;DHT22;11787;52.018;8.570;2022-12-05T14:21:40;2.30;99.90
23237;DHT22;11787;52.018;8.570;2022-12-05T14:32:37;2.20;99.90
23237;DHT22;11787;52.018;8.570;2022-12-05T14:35:10;2.20;99.90
23237;DHT22;11787;52.018;8.570;2022-12-05T14:37:51;2.20;99.90
23237;DHT22;11787;52.018;8.570;2022-12-05T14:40:31;2.20;99.90
23237;DHT22;11787;52.018;8.570;2022-12-05T14:43:18;2.20;99.90
23237;DHT22;11787;52.018;8.570;2022-12-05T15:01:30;2.30;99.90
23237;DHT22;11787;52.018;8.570;2022-12-05T15:04:22;2.30;99.90
23237;DHT22;11787;52.018;8.570;2022-12-05T15:07:09;2.30;99.90
23237;DHT22;11787;52.018;8.570;2022-12-05T15:21:12;2.40;99.90
23237;DHT22;11787;52.018;8.570;2022-12-05T15:23:56;2.40;99.90
23237;DHT22;11787;52.018;8.570;2022-12-05T15:26:26;2.50;99.90
23237;DHT22;11787;52.018;8.570;2022-12-05T15:31:30;2.50;99.90
23237;DHT22;11787;52.018;8.570;2022-12-05T15:34:00;2.50;99.90
23237;DHT22;11787;52.018;8.570;2022-12-05T15:36:34;2.50;99.90
23237;DHT22;11787;52.018;8.570;2022-12-05T15:39:16;2.50;99.90
23237;DHT22;11787;52.018;8.570;2022-12-05T15:41:44;2.50;99.90
23237;DHT22;11787;52.018;8.570;2022-12-05T15:44:10;2.50;99.90
23237;DHT22;11787;52.018;8.570;2022-12-05T15:46:36;2.50;99.90
23237;DHT22;11787;52.018;8.570;2022-12-05T15:49:15;2.50;99.90
23237;DHT22;11787;52.018;8.570;2022-12-05T15:51:42;2.50;99.90
23237;DHT22;11787;52.018;8.570;2022-12-05T15:54:15;2.50;99.90
23237;DHT22;11787;52.018;8.570;2022-12-05T15:56:50;2.50;99.90
23237;DHT22;11787;52.018;8.570;2022-12-05T15:59:23;2.50;99.90
23237;DHT22;11787;52.018;8.570;2022-12-05T16:01:55;2.50;99.90
23237;DHT22;11787;52.018;8.570;2022-12-05T16:04:28;2.50;99.90
23237;DHT22;11787;52.018;8.570;2022-12-05T16:06:58;2.60;99.90
23237;DHT22;11787;52.018;8.570;2022-12-05T16:09:30;2.60;99.90
23237;DHT22;11787;52.018;8.570;2022-12-05T16:12:04;2.50;99.90
23237;DHT22;11787;52.018;8.570;2022-12-05T16:14:34;2.60;99.90
23237;DHT22;11787;52.018;8.570;2022-12-05T16:17:01;2.60;99.90
23237;DHT22;11787;52.018;8.570;2022-12-05T16:19:28;2.60;99.90
23237;DHT22;11787;52.018;8.570;2022-12-05T16:24:43;2.60;99.90
23237;DHT22;11787;52.018;8.570;2022-12-05T16:27:13;2.60;99.90
23237;DHT22;11787;52.018;8.570;2022-12-05T16:29:39;2.50;99.90
23237;DHT22;11787;52.018;8.570;2022-12-05T16:32:22;2.50;99.90
23237;DHT22;11787;52.018;8.570;2022-12-05T16:34:48;2.50;99.90
23237;DHT22;11787;52.018;8.570;2022-12-05T16:37:26;2.50;99.90
23237;DHT22;11787;52.018;8.570;2022-12-05T16:39:52;2.50;99.90
23237;DHT22;11787;52.018;8.570;2022-12-05T16:42:25;2.50;99.90
23237;DHT22;11787;52.018;8.570;2022-12-05T16:44:58;2.60;99.90
23237;DHT22;11787;52.018;8.570;2022-12-05T16:47:55;2.50;99.90
23237;DHT22;11787;52.018;8.570;2022-12-05T16:50:32;2.40;99.90
23237;DHT22;11787;52.018;8.570;2022-12-05T16:53:14;2.20;99.90
23237;DHT22;11787;52.018;8.570;2022-12-05T16:55:41;2.20;99.90
23237;DHT22;11787;52.018;8.570;2022-12-05T16:58:16;2.20;99.90
23237;DHT22;11787;52.018;8.570;2022-12-05T17:00:43;2.30;99.90
23237;DHT22;11787;52.018;8.570;2022-12-05T17:06:30;2.30;99.90
23237;DHT22;11787;52.018;8.570;2022-12-05T17:12:22;2.30;99.90
23237;DHT22;11787;52.018;8.570;2022-12-05T17:14:48;2.40;99.90
23237;DHT22;11787;52.018;8.570;2022-12-05T17:17:14;2.40;99.90
23237;DHT22;11787;52.018;8.570;2022-12-05T17:19:40;2.40;99.90
23237;DHT22;11787;52.018;8.570;2022-12-05T17:22:06;2.40;99.90
23237;DHT22;11787;52.018;8.570;2022-12-05T17:24:31;2.40;99.90
23237;DHT22;11787;52.018;8.570;2022-12-05T17:26:57;2.40;99.90
23237;DHT22;11787;52.018;8.570;2022-12-05T17:29:23;2.40;99.90
23237;DHT22;11787;52.018;8.570;2022-12-05T17:31:48;2.40;99.90
23237;DHT22;11787;52.018;8.570;2022-12-05T17:34:15;2.40;99.90
23237;DHT22;11787;52.018;8.570;2022-12-05T17:40:04;2.40;99.90
23237;DHT22;11787;52.018;8.570;2022-12-05T17:42:30;2.40;99.90
23237;DHT22;11787;52.018;8.570;2022-12-05T17:44:55;2.40;99.90
23237;DHT22;11787;52.018;8.570;2022-12-05T17:47:21;2.40;99.90
23237;DHT22;11787;52.018;8.570;2022-12-05T17:49:46;2.40;99.90
23237;DHT22;11787;52.018;8.570;2022-12-05T17:52:12;2.40;99.90
23237;DHT22;11787;52.018;8.570;2022-12-05T17:54:37;2.30;99.90
23237;DHT22;11787;52.018;8.570;2022-12-05T17:57:03;2.40;99.90
23237;DHT22;11787;52.018;8.570;2022-12-05T17:59:29;2.30;99.90
23237;DHT22;11787;52.018;8.570;2022-12-05T18:01:54;2.20;99.90
23237;DHT22;11787;52.018;8.570;2022-12-05T18:04:20;2.10;99.90
23237;DHT22;11787;52.018;8.570;2022-12-05T18:06:46;2.10;99.90
23237;DHT22;11787;52.018;8.570;2022-12-05T18:09:11;2.10;99.90
23237;DHT22;11787;52.018;8.570;2022-12-05T18:11:37;2.10;99.90
23237;DHT22;11787;52.018;8.570;2022-12-05T18:14:03;2.10;99.90
23237;DHT22;11787;52.018;8.570;2022-12-05T18:16:28;2.00;99.90
23237;DHT22;11787;52.018;8.570;2022-12-05T18:18:54;2.00;99.90
23237;DHT22;11787;52.018;8.570;2022-12-05T18:24:42;2.10;99.90
23237;DHT22;11787;52.018;8.570;2022-12-05T18:27:07;2.00;99.90
23237;DHT22;11787;52.018;8.570;2022-12-05T18:29:33;2.00;99.90
23237;DHT22;11787;52.018;8.570;2022-12-05T18:31:58;2.00;99.90
23237;DHT22;11787;52.018;8.570;2022-12-05T18:34:24;2.10;99.90
23237;DHT22;11787;52.018;8.570;2022-12-05T18:36:50;2.10;99.90
23237;DHT22;11787;52.018;8.570;2022-12-05T18:39:16;2.10;99.90
23237;DHT22;11787;52.018;8.570;2022-12-05T18:41:41;2.20;99.90
23237;DHT22;11787;52.018;8.570;2022-12-05T18:44:07;2.20;99.90
23237;DHT22;11787;52.018;8.570;2022-12-05T18:46:35;2.20;99.90
23237;DHT22;11787;52.018;8.570;2022-12-05T18:49:02;2.20;99.90
23237;DHT22;11787;52.018;8.570;2022-12-05T18:51:27;2.20;99.90
23237;DHT22;11787;52.018;8.570;2022-12-05T18:53:53;2.20;99.90
23237;DHT22;11787;52.018;8.570;2022-12-05T18:59:41;2.40;99.90
23237;DHT22;11787;52.018;8.570;2022-12-05T19:02:08;2.30;99.90
23237;DHT22;11787;52.018;8.570;2022-12-05T19:04:34;2.30;99.90
23237;DHT22;11787;52.018;8.570;2022-12-05T19:06:59;2.30;99.90
23237;DHT22;11787;52.018;8.570;2022-12-05T19:09:28;2.30;99.90
23237;DHT22;11787;52.018;8.570;2022-12-05T19:11:55;2.30;99.90
23237;DHT22;11787;52.018;8.570;2022-12-05T19:14:22;2.40;99.90
23237;DHT22;11787;52.018;8.570;2022-12-05T19:16:49;2.30;99.90
23237;DHT22;11787;52.018;8.570;2022-12-05T19:19:16;2.30;99.90
23237;DHT22;11787;52.018;8.570;2022-12-05T19:21:42;2.30;99.90
23237;DHT22;11787;52.018;8.570;2022-12-05T19:24:11;2.30;99.90
23237;DHT22;11787;52.018;8.570;2022-12-05T19:26:38;2.40;99.90
23237;DHT22;11787;52.018;8.570;2022-12-05T19:29:04;2.40;99.90
23237;DHT22;11787;52.018;8.570;2022-12-05T19:31:30;2.40;99.90
23237;DHT22;11787;52.018;8.570;2022-12-05T19:34:00;2.50;99.90
23237;DHT22;11787;52.018;8.570;2022-12-05T19:36:42;2.50;99.90
23237;DHT22;11787;52.018;8.570;2022-12-05T19:39:19;2.50;99.90
23237;DHT22;11787;52.018;8.570;2022-12-05T19:41:46;2.50;99.90
23237;DHT22;11787;52.018;8.570;2022-12-05T19:44:11;2.50;99.90
23237;DHT22;11787;52.018;8.570;2022-12-05T19:46:37;2.40;99.90
23237;DHT22;11787;52.018;8.570;2022-12-05T19:52:25;2.50;99.90
23237;DHT22;11787;52.018;8.570;2022-12-05T19:54:50;2.50;99.90
23237;DHT22;11787;52.018;8.570;2022-12-05T19:57:16;2.50;99.90
23237;DHT22;11787;52.018;8.570;2022-12-05T19:59:42;2.50;99.90
23237;DHT22;11787;52.018;8.570;2022-12-05T20:02:08;2.50;99.90
23237;DHT22;11787;52.018;8.570;2022-12-05T20:04:33;2.50;99.90
23237;DHT22;11787;52.018;8.570;2022-12-05T20:06:59;2.40;99.90
23237;DHT22;11787;52.018;8.570;2022-12-05T20:09:25;2.30;99.90
23237;DHT22;11787;52.018;8.570;2022-12-05T20:11:51;2.30;99.90
23237;DHT22;11787;52.018;8.570;2022-12-05T20:14:18;2.30;99.90
23237;DHT22;11787;52.018;8.570;2022-12-05T20:16:44;2.30;99.90
23237;DHT22;11787;52.018;8.570;2022-12-05T20:19:10;2.30;99.90
23237;DHT22;11787;52.018;8.570;2022-12-05T20:21:36;2.30;99.90
23237;DHT22;11787;52.018;8.570;2022-12-05T20:24:04;2.30;99.90